createdAt,value
2023-01-19T00:01:04.388Z,0.00
2023-01-19T00:03:32.437Z,0.60
2023-01-19T00:06:04.466Z,0.00
2023-01-19T00:08:32.101Z,0.00
2023-01-19T00:10:59.738Z,0.00
2023-01-19T00:13:27.884Z,3.00
2023-01-19T00:15:55.326Z,0.80
2023-01-19T00:18:23.055Z,1.00
2023-01-19T00:20:50.569Z,0.00
2023-01-19T00:23:18.229Z,0.00
2023-01-19T00:25:46.370Z,0.00
2023-01-19T00:28:16.488Z,0.00
2023-01-19T00:30:44.739Z,0.00
2023-01-19T00:33:16.146Z,0.00
2023-01-19T00:35:43.978Z,0.00
2023-01-19T00:38:12.508Z,0.00
2023-01-19T00:40:40.293Z,0.60
2023-01-19T00:43:07.631Z,1.00
2023-01-19T00:45:35.663Z,0.00
2023-01-19T00:48:03.436Z,0.00
2023-01-19T00:50:32.582Z,0.00
2023-01-19T00:53:03.744Z,0.00
2023-01-19T00:55:33.899Z,0.00
2023-01-19T00:58:03.071Z,0.00
2023-01-19T01:00:31.090Z,0.00
2023-01-19T01:02:59.188Z,0.00
2023-01-19T01:05:27.042Z,0.00
2023-01-19T01:07:54.751Z,1.00
2023-01-19T01:10:28.208Z,1.20
2023-01-19T01:12:58.914Z,0.00
2023-01-19T01:15:28.382Z,0.00
2023-01-19T01:17:56.622Z,1.00
2023-01-19T01:20:28.265Z,0.00
2023-01-19T01:22:57.266Z,0.00
2023-01-19T01:25:27.070Z,0.00
2023-01-19T01:27:56.046Z,0.00
2023-01-19T01:30:24.005Z,0.00
2023-01-19T01:32:51.548Z,0.00
2023-01-19T01:35:19.348Z,0.00
2023-01-19T01:37:47.095Z,0.60
2023-01-19T01:40:17.111Z,0.20
2023-01-19T01:42:45.792Z,0.00
2023-01-19T01:45:31.551Z,0.00
2023-01-19T01:48:12.672Z,1.00
2023-01-19T01:51:07.298Z,1.00
2023-01-19T01:53:37.623Z,1.80
2023-01-19T01:56:12.701Z,2.00
2023-01-19T01:58:41.339Z,3.40
2023-01-19T02:01:29.313Z,3.20
2023-01-19T02:03:58.735Z,1.00
2023-01-19T02:06:26.770Z,1.00
2023-01-19T02:09:27.425Z,0.00
2023-01-19T02:12:14.104Z,0.80
2023-01-19T02:14:41.877Z,0.40
2023-01-19T02:17:09.425Z,0.00
2023-01-19T02:19:43.901Z,0.00
2023-01-19T02:22:14.191Z,0.00
2023-01-19T02:24:42.660Z,0.00
2023-01-19T02:27:11.875Z,0.00
2023-01-19T02:29:40.542Z,0.00
2023-01-19T02:32:09.665Z,0.00
2023-01-19T02:34:37.463Z,0.00
2023-01-19T02:37:12.131Z,0.00
2023-01-19T02:40:03.504Z,0.00
2023-01-19T02:42:36.703Z,0.00
2023-01-19T02:45:07.227Z,0.00
2023-01-19T02:47:40.407Z,0.00
2023-01-19T02:50:44.547Z,0.00
2023-01-19T02:53:49.858Z,0.00
2023-01-19T02:56:46.640Z,0.00
2023-01-19T02:59:35.955Z,0.00
2023-01-19T03:02:24.253Z,0.00
2023-01-19T03:05:04.336Z,0.00
2023-01-19T03:07:54.229Z,0.00
2023-01-19T03:10:40.838Z,0.00
2023-01-19T03:13:42.343Z,0.00
2023-01-19T03:16:19.985Z,0.00
2023-01-19T03:18:58.509Z,0.00
2023-01-19T03:21:28.466Z,0.00
2023-01-19T03:24:00.988Z,0.00
2023-01-19T03:26:32.520Z,0.00
2023-01-19T03:29:03.972Z,0.00
2023-01-19T03:31:33.119Z,0.00
2023-01-19T03:34:08.425Z,0.00
2023-01-19T03:36:38.200Z,0.00
2023-01-19T03:39:09.623Z,0.00
2023-01-19T03:41:39.024Z,0.00
2023-01-19T03:44:07.195Z,0.00
2023-01-19T03:46:34.923Z,0.00
2023-01-19T03:49:02.585Z,0.00
2023-01-19T03:51:30.712Z,0.00
2023-01-19T03:53:58.235Z,0.00
2023-01-19T03:56:26.239Z,0.00
2023-01-19T03:58:54.575Z,0.00
2023-01-19T04:01:23.987Z,0.00
2023-01-19T04:03:52.962Z,0.00
2023-01-19T04:06:21.535Z,0.40
2023-01-19T04:08:52.564Z,0.00
2023-01-19T04:11:20.090Z,0.00
2023-01-19T04:13:47.412Z,0.00
2023-01-19T04:16:20.219Z,0.00
2023-01-19T04:18:48.716Z,0.00
2023-01-19T04:21:16.869Z,0.00
2023-01-19T04:23:46.302Z,0.80
2023-01-19T04:26:14.296Z,0.00
2023-01-19T04:28:42.903Z,0.00
2023-01-19T04:31:10.403Z,0.00
2023-01-19T04:33:38.192Z,0.00
2023-01-19T04:36:06.055Z,0.00
2023-01-19T04:38:33.553Z,1.00
2023-01-19T04:41:00.951Z,0.80
2023-01-19T04:43:28.627Z,1.00
2023-01-19T04:45:55.990Z,1.00
2023-01-19T04:48:23.554Z,1.00
2023-01-19T04:50:52.865Z,0.80
2023-01-19T04:53:20.291Z,3.00
2023-01-19T04:55:48.046Z,3.00
2023-01-19T04:58:15.993Z,3.20
2023-01-19T05:00:44.265Z,0.00
2023-01-19T05:03:11.843Z,5.20
2023-01-19T05:05:39.345Z,6.00
2023-01-19T05:08:06.739Z,4.00
2023-01-19T05:10:34.317Z,9.20
2023-01-19T05:13:02.111Z,7.00
2023-01-19T05:15:29.892Z,2.60
2023-01-19T05:17:58.315Z,6.80
2023-01-19T05:20:25.771Z,7.80
2023-01-19T05:22:53.804Z,6.00
2023-01-19T05:25:21.275Z,7.00
2023-01-19T05:27:48.713Z,5.60
2023-01-19T05:30:16.782Z,11.20
2023-01-19T05:32:44.281Z,11.60
2023-01-19T05:35:13.875Z,7.80
2023-01-19T05:37:41.522Z,11.60
2023-01-19T05:40:09.996Z,9.00
2023-01-19T05:42:38.156Z,11.60
2023-01-19T05:45:06.144Z,8.40
2023-01-19T05:47:33.390Z,7.40
2023-01-19T05:50:00.902Z,7.40
2023-01-19T05:52:28.143Z,3.00
2023-01-19T05:54:55.978Z,9.20
2023-01-19T05:57:23.598Z,11.40
2023-01-19T05:59:50.865Z,9.80
2023-01-19T06:02:18.280Z,10.60
2023-01-19T06:04:45.707Z,13.00
2023-01-19T06:07:13.082Z,7.20
2023-01-19T06:09:40.410Z,6.60
2023-01-19T06:12:07.831Z,6.20
2023-01-19T06:14:37.197Z,11.40
2023-01-19T06:17:06.329Z,9.60
2023-01-19T06:19:33.980Z,6.80
2023-01-19T06:22:01.924Z,8.20
2023-01-19T06:24:29.955Z,9.20
2023-01-19T06:26:57.606Z,4.40
2023-01-19T06:29:26.394Z,12.00
2023-01-19T06:31:55.744Z,7.00
2023-01-19T06:34:27.285Z,10.40
2023-01-19T06:36:59.014Z,9.80
2023-01-19T06:39:27.623Z,10.80
2023-01-19T06:41:55.302Z,4.00
2023-01-19T06:44:22.858Z,8.60
2023-01-19T06:46:50.363Z,6.00
2023-01-19T06:49:18.339Z,8.40
2023-01-19T06:51:45.912Z,12.40
2023-01-19T06:54:13.524Z,7.80
2023-01-19T06:56:41.030Z,7.00
2023-01-19T06:59:10.117Z,11.20
2023-01-19T07:01:37.926Z,6.80
2023-01-19T07:04:05.692Z,5.20
2023-01-19T07:06:33.495Z,10.00
2023-01-19T07:09:01.000Z,9.40
2023-01-19T07:11:32.859Z,12.00
2023-01-19T07:14:00.621Z,7.40
2023-01-19T07:16:28.382Z,6.60
2023-01-19T07:18:56.165Z,8.20
2023-01-19T07:21:23.944Z,7.40
2023-01-19T07:23:52.905Z,9.00
2023-01-19T07:26:21.946Z,5.40
2023-01-19T07:28:50.010Z,6.40
2023-01-19T07:31:18.643Z,7.00
2023-01-19T07:33:46.734Z,8.00
2023-01-19T07:36:14.336Z,8.60
2023-01-19T07:38:42.226Z,2.40
2023-01-19T07:41:10.995Z,6.60
2023-01-19T07:43:38.858Z,8.00
2023-01-19T07:46:08.532Z,5.00
2023-01-19T07:48:36.236Z,10.80
2023-01-19T07:51:12.432Z,11.00
2023-01-19T07:53:41.940Z,7.00
2023-01-19T07:56:09.745Z,3.80
2023-01-19T07:58:37.279Z,4.40
2023-01-19T08:01:10.515Z,5.00
2023-01-19T08:03:38.853Z,6.40
2023-01-19T08:06:07.213Z,5.40
2023-01-19T08:08:34.820Z,5.60
2023-01-19T08:11:03.369Z,6.00
2023-01-19T08:13:30.919Z,5.80
2023-01-19T08:15:58.671Z,2.40
2023-01-19T08:18:26.368Z,3.40
2023-01-19T08:20:53.957Z,8.00
2023-01-19T08:23:21.488Z,4.60
2023-01-19T08:25:49.166Z,5.40
2023-01-19T08:28:17.690Z,4.60
2023-01-19T08:30:45.649Z,5.40
2023-01-19T08:33:14.103Z,4.80
2023-01-19T08:35:47.552Z,8.40
2023-01-19T08:38:15.920Z,6.00
2023-01-19T08:40:43.663Z,3.00
2023-01-19T08:43:16.149Z,5.40
2023-01-19T08:45:51.286Z,6.40
2023-01-19T08:48:23.873Z,2.20
2023-01-19T08:50:52.098Z,6.00
2023-01-19T08:53:21.398Z,2.00
2023-01-19T08:55:48.725Z,3.40
2023-01-19T08:58:16.510Z,3.80
2023-01-19T09:00:43.964Z,3.40
2023-01-19T09:03:14.341Z,2.00
2023-01-19T09:05:42.117Z,4.00
2023-01-19T09:08:11.934Z,4.20
2023-01-19T09:10:40.435Z,4.00
2023-01-19T09:13:11.183Z,2.00
2023-01-19T09:15:39.798Z,5.00
2023-01-19T09:18:13.952Z,2.20
2023-01-19T09:20:45.518Z,3.20
2023-01-19T09:23:15.448Z,6.00
2023-01-19T09:25:44.974Z,7.00
2023-01-19T09:28:15.102Z,6.60
2023-01-19T09:30:44.053Z,5.60
2023-01-19T09:33:14.255Z,8.40
2023-01-19T09:35:43.414Z,3.40
2023-01-19T09:38:11.685Z,7.80
2023-01-19T09:40:48.186Z,10.00
2023-01-19T09:43:18.814Z,11.20
2023-01-19T09:45:58.440Z,10.00
2023-01-19T09:48:31.841Z,8.40
2023-01-19T09:51:03.520Z,7.40
2023-01-19T09:53:51.834Z,1.40
2023-01-19T09:56:22.854Z,8.00
2023-01-19T09:58:51.820Z,7.60
2023-01-19T10:01:40.431Z,6.40
2023-01-19T10:04:29.818Z,5.00
2023-01-19T10:07:15.760Z,8.20
2023-01-19T10:10:10.211Z,8.60
2023-01-19T10:13:19.883Z,9.00
2023-01-19T10:16:09.492Z,7.20
2023-01-19T10:18:47.860Z,7.60
2023-01-19T10:21:23.456Z,1.80
2023-01-19T10:24:15.410Z,6.00
2023-01-19T10:26:56.440Z,5.20
2023-01-19T10:29:38.159Z,7.20
2023-01-19T10:32:10.477Z,6.20
2023-01-19T10:34:38.033Z,5.80
2023-01-19T10:37:16.071Z,8.00
2023-01-19T10:39:47.586Z,5.00
2023-01-19T10:42:17.603Z,6.20
2023-01-19T10:44:46.199Z,8.60
2023-01-19T10:47:30.762Z,7.80
2023-01-19T10:49:58.358Z,5.00
2023-01-19T10:52:35.989Z,8.80
2023-01-19T10:55:08.475Z,8.60
2023-01-19T10:57:40.941Z,5.80
2023-01-19T11:00:31.008Z,4.60
2023-01-19T11:02:58.638Z,7.60
2023-01-19T11:05:32.631Z,5.00
2023-01-19T11:08:00.889Z,6.80
2023-01-19T11:10:30.296Z,7.00
2023-01-19T11:13:07.794Z,9.00
2023-01-19T11:15:48.250Z,8.80
2023-01-19T11:18:34.135Z,8.60
2023-01-19T11:21:18.211Z,9.00
2023-01-19T11:23:51.264Z,5.00
2023-01-19T11:26:59.416Z,8.40
2023-01-19T11:29:27.667Z,9.40
2023-01-19T11:31:57.832Z,5.80
2023-01-19T11:34:33.365Z,9.60
2023-01-19T11:37:05.808Z,4.20
2023-01-19T11:39:49.880Z,7.00
2023-01-19T11:42:19.084Z,9.20
2023-01-19T11:45:17.409Z,10.00
2023-01-19T11:47:49.794Z,8.00
2023-01-19T11:50:24.631Z,5.60
2023-01-19T11:53:16.643Z,7.40
2023-01-19T11:56:04.994Z,3.20
2023-01-19T11:58:37.452Z,5.20
2023-01-19T12:01:25.064Z,9.20
2023-01-19T12:04:14.404Z,10.20
2023-01-19T12:06:48.078Z,1.00
2023-01-19T12:09:51.124Z,8.00
2023-01-19T12:12:30.167Z,10.80
2023-01-19T12:15:40.933Z,3.60
2023-01-19T12:18:23.614Z,13.60
2023-01-19T12:20:54.948Z,9.40
2023-01-19T12:23:31.974Z,8.00
2023-01-19T12:26:18.012Z,10.00
2023-01-19T12:28:48.729Z,12.00
2023-01-19T12:31:19.008Z,8.80
2023-01-19T12:33:46.833Z,7.00
2023-01-19T12:36:38.909Z,8.20
2023-01-19T12:39:18.245Z,8.40
2023-01-19T12:41:48.655Z,7.40
2023-01-19T12:44:22.401Z,7.20
2023-01-19T12:47:21.218Z,11.00
2023-01-19T12:49:59.632Z,12.00
2023-01-19T12:52:36.085Z,9.20
2023-01-19T12:55:22.201Z,7.40
2023-01-19T12:58:03.844Z,12.80
2023-01-19T13:00:35.189Z,14.80
2023-01-19T13:03:17.712Z,8.80
2023-01-19T13:05:45.213Z,8.60
2023-01-19T13:08:19.911Z,54.50
2023-01-19T13:10:54.649Z,4.40
2023-01-19T13:13:28.815Z,19.00
2023-01-19T13:16:00.557Z,13.80
2023-01-19T13:18:35.926Z,8.60
2023-01-19T13:21:06.936Z,6.20
2023-01-19T13:23:52.154Z,12.80
2023-01-19T13:26:36.597Z,6.20
2023-01-19T13:29:15.974Z,7.00
2023-01-19T13:31:53.017Z,13.60
2023-01-19T13:34:26.382Z,9.40
2023-01-19T13:36:56.879Z,8.20
2023-01-19T13:39:30.658Z,7.00
2023-01-19T13:42:03.111Z,6.20
2023-01-19T13:44:39.433Z,9.60
2023-01-19T13:47:13.917Z,10.20
2023-01-19T13:49:46.634Z,11.20
2023-01-19T13:52:20.614Z,8.20
2023-01-19T13:54:55.935Z,12.80
2023-01-19T13:57:38.434Z,10.40
2023-01-19T14:00:12.310Z,6.00
2023-01-19T14:02:41.513Z,6.00
2023-01-19T14:05:21.856Z,9.20
2023-01-19T14:07:59.359Z,6.20
2023-01-19T14:10:27.547Z,10.00
2023-01-19T14:13:03.615Z,12.20
2023-01-19T14:15:34.483Z,9.40
2023-01-19T14:18:09.532Z,18.80
2023-01-19T14:20:37.451Z,13.20
2023-01-19T14:23:06.224Z,9.80
2023-01-19T14:25:39.837Z,15.20
2023-01-19T14:28:30.340Z,6.00
2023-01-19T14:31:26.673Z,12.60
2023-01-19T14:33:56.254Z,8.20
2023-01-19T14:36:26.688Z,4.00
2023-01-19T14:38:57.585Z,7.00
2023-01-19T14:41:38.125Z,16.60
2023-01-19T14:44:16.933Z,16.00
2023-01-19T14:46:48.867Z,10.60
2023-01-19T14:49:41.708Z,18.00
2023-01-19T14:52:28.533Z,12.60
2023-01-19T14:54:59.024Z,9.60
2023-01-19T14:57:26.696Z,11.60
2023-01-19T14:59:56.058Z,9.20
2023-01-19T15:02:24.672Z,15.40
2023-01-19T15:04:55.540Z,13.40
2023-01-19T15:07:25.248Z,12.00
2023-01-19T15:09:53.256Z,18.40
2023-01-19T15:12:25.392Z,15.00
2023-01-19T15:14:52.997Z,17.00
2023-01-19T15:17:27.991Z,25.80
2023-01-19T15:19:56.491Z,9.40
2023-01-19T15:22:28.661Z,8.20
2023-01-19T15:25:00.215Z,12.40
2023-01-19T15:27:27.997Z,19.60
2023-01-19T15:29:55.530Z,22.40
2023-01-19T15:32:23.122Z,19.40
2023-01-19T15:34:50.708Z,13.80
2023-01-19T15:37:18.540Z,12.60
2023-01-19T15:39:46.172Z,17.20
2023-01-19T15:42:15.810Z,18.40
2023-01-19T15:44:45.226Z,13.40
2023-01-19T15:47:12.934Z,23.40
2023-01-19T15:49:40.185Z,12.60
2023-01-19T15:52:07.448Z,12.60
2023-01-19T15:54:34.710Z,8.60
2023-01-19T15:57:01.976Z,12.80
2023-01-19T15:59:29.280Z,4.00
2023-01-19T16:01:56.790Z,10.60
2023-01-19T16:04:24.208Z,7.40
2023-01-19T16:06:51.892Z,3.00
2023-01-19T16:09:20.315Z,1.00
2023-01-19T16:11:47.736Z,4.80
2023-01-19T16:14:17.412Z,7.00
2023-01-19T16:16:46.344Z,13.75
2023-01-19T16:19:16.213Z,4.40
2023-01-19T16:21:44.534Z,11.25
2023-01-19T16:24:12.085Z,12.50
2023-01-19T16:26:39.687Z,5.00
2023-01-19T16:29:10.664Z,9.75
2023-01-19T16:31:39.650Z,7.80
2023-01-19T16:34:07.869Z,12.00
2023-01-19T16:36:37.277Z,3.80
2023-01-19T16:39:07.657Z,5.80
2023-01-19T16:41:36.090Z,10.80
2023-01-19T16:44:04.854Z,9.60
2023-01-19T16:46:36.829Z,9.60
2023-01-19T16:49:28.300Z,8.60
2023-01-19T16:51:58.662Z,7.00
2023-01-19T16:54:27.880Z,9.80
2023-01-19T16:56:58.582Z,9.80
2023-01-19T16:59:28.410Z,6.40
2023-01-19T17:01:56.338Z,7.00
2023-01-19T17:04:24.269Z,13.00
2023-01-19T17:06:51.694Z,12.80
2023-01-19T17:09:19.290Z,11.00
2023-01-19T17:11:47.062Z,6.20
2023-01-19T17:14:17.230Z,9.20
2023-01-19T17:16:44.769Z,7.80
2023-01-19T17:19:17.724Z,11.80
2023-01-19T17:21:46.855Z,6.80
2023-01-19T17:24:14.484Z,9.40
2023-01-19T17:26:43.138Z,21.00
2023-01-19T17:29:13.359Z,21.40
2023-01-19T17:31:41.189Z,19.00
2023-01-19T17:34:10.075Z,17.60
2023-01-19T17:36:38.247Z,20.80
2023-01-19T17:39:08.466Z,18.20
2023-01-19T17:41:36.439Z,19.40
2023-01-19T17:44:05.631Z,11.20
2023-01-19T17:46:36.120Z,21.20
2023-01-19T17:49:05.439Z,27.40
2023-01-19T17:51:33.454Z,24.60
2023-01-19T17:54:01.252Z,17.20
2023-01-19T17:56:30.753Z,13.40
2023-01-19T17:58:59.125Z,13.40
2023-01-19T18:01:29.556Z,8.60
2023-01-19T18:03:57.689Z,10.00
2023-01-19T18:06:25.269Z,12.00
2023-01-19T18:08:52.856Z,12.00
2023-01-19T18:11:21.770Z,13.40
2023-01-19T18:13:50.437Z,9.00
2023-01-19T18:16:26.537Z,11.80
2023-01-19T18:18:55.628Z,7.00
2023-01-19T18:21:24.414Z,10.60
2023-01-19T18:23:51.950Z,18.00
2023-01-19T18:26:22.905Z,31.75
2023-01-19T18:28:50.589Z,34.25
2023-01-19T18:31:19.457Z,12.20
2023-01-19T18:33:49.032Z,9.00
2023-01-19T18:36:16.976Z,12.60
2023-01-19T18:38:45.215Z,36.00
2023-01-19T18:41:15.229Z,20.00
2023-01-19T18:43:43.667Z,14.80
2023-01-19T18:46:11.779Z,16.60
2023-01-19T18:48:39.943Z,8.60
2023-01-19T18:51:12.927Z,9.00
2023-01-19T18:53:40.604Z,13.80
2023-01-19T18:56:08.880Z,10.00
2023-01-19T18:58:38.590Z,13.20
2023-01-19T19:01:19.328Z,12.20
2023-01-19T19:03:46.702Z,10.80
2023-01-19T19:06:14.886Z,13.80
2023-01-19T19:08:44.382Z,16.80
2023-01-19T19:11:14.085Z,16.40
2023-01-19T19:13:42.029Z,12.40
2023-01-19T19:16:11.916Z,8.60
2023-01-19T19:18:40.085Z,16.00
2023-01-19T19:21:09.444Z,11.80
2023-01-19T19:23:37.605Z,13.00
2023-01-19T19:26:07.136Z,17.60
2023-01-19T19:28:36.626Z,14.40
2023-01-19T19:31:09.921Z,21.60
2023-01-19T19:33:38.637Z,19.00
2023-01-19T19:36:07.890Z,25.60
2023-01-19T19:38:37.161Z,24.80
2023-01-19T19:41:11.795Z,19.40
2023-01-19T19:43:40.133Z,16.80
2023-01-19T19:46:10.473Z,22.20
2023-01-19T19:48:39.520Z,22.20
2023-01-19T19:51:19.055Z,1.40
2023-01-19T19:53:50.190Z,24.20
2023-01-19T19:56:21.546Z,24.60
2023-01-19T19:58:49.970Z,13.40
2023-01-19T20:01:20.217Z,19.60
2023-01-19T20:03:48.436Z,20.60
2023-01-19T20:06:20.995Z,20.20
2023-01-19T20:08:49.884Z,23.80
2023-01-19T20:11:20.785Z,9.00
2023-01-19T20:13:48.193Z,10.40
2023-01-19T20:16:19.171Z,15.60
2023-01-19T20:18:51.095Z,18.40
2023-01-19T20:21:46.023Z,16.00
2023-01-19T20:24:17.105Z,19.00
2023-01-19T20:26:48.637Z,21.60
2023-01-19T20:29:16.694Z,15.20
2023-01-19T20:31:47.935Z,19.80
2023-01-19T20:34:18.387Z,17.80
2023-01-19T20:36:49.858Z,25.60
2023-01-19T20:39:19.360Z,19.40
2023-01-19T20:41:49.011Z,30.40
2023-01-19T20:44:24.825Z,36.40
2023-01-19T20:46:53.245Z,25.60
2023-01-19T20:49:20.918Z,32.80
2023-01-19T20:51:48.529Z,33.80
2023-01-19T20:54:18.349Z,37.20
2023-01-19T20:56:45.913Z,25.00
2023-01-19T20:59:13.744Z,29.20
2023-01-19T21:01:41.912Z,31.80
2023-01-19T21:04:10.295Z,34.80
2023-01-19T21:06:38.914Z,31.80
2023-01-19T21:09:07.584Z,31.00
2023-01-19T21:11:36.285Z,38.20
2023-01-19T21:14:05.324Z,31.20
2023-01-19T21:16:34.997Z,38.80
2023-01-19T21:19:02.986Z,35.60
2023-01-19T21:21:31.845Z,5.40
2023-01-19T21:24:01.353Z,32.60
2023-01-19T21:26:30.472Z,36.20
2023-01-19T21:28:59.749Z,36.40
2023-01-19T21:31:28.095Z,19.20
2023-01-19T21:33:56.576Z,27.80
2023-01-19T21:36:24.988Z,24.40
2023-01-19T21:38:52.938Z,24.80
2023-01-19T21:41:21.154Z,27.20
2023-01-19T21:43:48.698Z,24.40
2023-01-19T21:46:21.863Z,25.60
2023-01-19T21:48:49.778Z,20.80
2023-01-19T21:51:17.481Z,19.40
2023-01-19T21:53:45.082Z,12.00
2023-01-19T21:56:12.719Z,12.60
2023-01-19T21:58:40.489Z,12.00
2023-01-19T22:01:15.690Z,15.80
2023-01-19T22:03:43.753Z,14.20
2023-01-19T22:06:13.998Z,10.40
2023-01-19T22:08:42.315Z,3.20
2023-01-19T22:11:12.068Z,14.40
2023-01-19T22:13:40.199Z,15.00
2023-01-19T22:16:13.848Z,12.80
2023-01-19T22:18:44.691Z,14.00
2023-01-19T22:21:18.645Z,13.40
2023-01-19T22:23:50.425Z,16.20
2023-01-19T22:26:18.499Z,14.20
2023-01-19T22:28:46.366Z,11.20
2023-01-19T22:31:17.042Z,11.80
2023-01-19T22:33:45.194Z,10.60
2023-01-19T22:36:21.685Z,10.40
2023-01-19T22:38:57.851Z,13.60
2023-01-19T22:41:38.120Z,9.80
2023-01-19T22:44:14.449Z,10.40
2023-01-19T22:46:42.561Z,10.00
2023-01-19T22:49:13.780Z,14.20
2023-01-19T22:51:41.928Z,6.60
2023-01-19T22:54:10.048Z,15.00
2023-01-19T22:56:39.425Z,7.40
2023-01-19T22:59:07.577Z,11.80
2023-01-19T23:01:38.345Z,12.20
2023-01-19T23:04:07.078Z,10.20
2023-01-19T23:06:36.834Z,12.00
2023-01-19T23:09:07.517Z,12.00
2023-01-19T23:11:37.883Z,8.60
2023-01-19T23:14:07.693Z,8.20
2023-01-19T23:16:36.074Z,6.80
2023-01-19T23:19:05.006Z,7.40
2023-01-19T23:21:33.120Z,8.60
2023-01-19T23:24:03.118Z,6.80
2023-01-19T23:26:38.256Z,7.80
2023-01-19T23:29:14.228Z,9.20
2023-01-19T23:31:47.634Z,7.20
2023-01-19T23:34:15.784Z,3.80
2023-01-19T23:36:44.361Z,7.00
2023-01-19T23:39:16.897Z,10.80
2023-01-19T23:41:44.462Z,7.40
2023-01-19T23:44:12.178Z,5.20
2023-01-19T23:46:40.037Z,0.00
2023-01-19T23:49:07.447Z,9.80
2023-01-19T23:51:35.137Z,9.20
2023-01-19T23:54:03.082Z,7.00
2023-01-19T23:56:35.477Z,9.80
2023-01-19T23:59:06.036Z,8.80
